createdAt,value
2022-11-16T00:01:08.597Z,8.48
2022-11-16T00:03:37.866Z,10.07
2022-11-16T00:06:06.840Z,9.45
2022-11-16T00:08:35.987Z,10.35
2022-11-16T00:11:07.907Z,11.05
2022-11-16T00:13:35.885Z,9.70
2022-11-16T00:16:04.193Z,9.27
2022-11-16T00:18:34.996Z,9.40
2022-11-16T00:21:06.669Z,8.65
2022-11-16T00:23:38.034Z,8.07
2022-11-16T00:26:06.246Z,8.77
2022-11-16T00:28:34.851Z,8.27
2022-11-16T00:31:06.290Z,8.38
2022-11-16T00:33:34.242Z,8.02
2022-11-16T00:36:02.200Z,8.07
2022-11-16T00:38:32.806Z,7.82
2022-11-16T00:41:00.619Z,7.72
2022-11-16T00:43:28.614Z,6.75
2022-11-16T00:45:56.227Z,7.28
2022-11-16T00:48:27.145Z,7.55
2022-11-16T00:50:54.946Z,7.20
2022-11-16T00:53:22.899Z,7.95
2022-11-16T00:55:52.070Z,7.60
2022-11-16T00:58:19.688Z,6.97
2022-11-16T01:00:47.973Z,7.28
2022-11-16T01:03:15.476Z,6.97
2022-11-16T01:05:43.144Z,6.70
2022-11-16T01:08:10.800Z,6.85
2022-11-16T01:10:39.582Z,6.95
2022-11-16T01:13:08.719Z,6.38
2022-11-16T01:15:36.297Z,6.88
2022-11-16T01:18:03.989Z,7.03
2022-11-16T01:20:31.591Z,7.18
2022-11-16T01:23:02.159Z,7.38
2022-11-16T01:25:29.731Z,8.02
2022-11-16T01:27:57.309Z,8.63
2022-11-16T01:30:26.304Z,7.93
2022-11-16T01:32:53.874Z,7.38
2022-11-16T01:35:21.541Z,7.10
2022-11-16T01:37:49.267Z,6.78
2022-11-16T01:40:16.930Z,7.90
2022-11-16T01:42:44.501Z,8.63
2022-11-16T01:45:22.535Z,9.30
2022-11-16T01:47:52.052Z,8.85
2022-11-16T01:50:20.046Z,8.10
2022-11-16T01:52:50.150Z,8.98
2022-11-16T01:55:18.032Z,8.23
2022-11-16T01:57:46.992Z,8.05
2022-11-16T02:00:15.703Z,9.18
2022-11-16T02:02:43.336Z,8.55
2022-11-16T02:05:14.188Z,8.50
2022-11-16T02:08:02.080Z,8.50
2022-11-16T02:10:36.757Z,9.20
2022-11-16T02:13:11.444Z,9.20
2022-11-16T02:15:42.362Z,9.18
2022-11-16T02:18:16.798Z,9.88
2022-11-16T02:20:59.894Z,10.10
2022-11-16T02:23:36.971Z,9.30
2022-11-16T02:26:15.424Z,10.30
2022-11-16T02:28:49.114Z,9.50
2022-11-16T02:31:20.614Z,9.10
2022-11-16T02:33:50.049Z,8.25
2022-11-16T02:36:20.665Z,9.40
2022-11-16T02:38:51.142Z,9.93
2022-11-16T02:41:20.147Z,10.80
2022-11-16T02:43:49.751Z,11.23
2022-11-16T02:46:22.876Z,11.18
2022-11-16T02:48:51.954Z,10.15
2022-11-16T02:51:19.752Z,11.20
2022-11-16T02:53:53.340Z,10.77
2022-11-16T02:56:21.940Z,10.32
2022-11-16T02:58:49.458Z,11.02
2022-11-16T03:01:20.249Z,11.02
2022-11-16T03:03:51.844Z,12.23
2022-11-16T03:06:20.739Z,11.68
2022-11-16T03:08:52.169Z,12.05
2022-11-16T03:14:06.645Z,10.93
2022-11-16T03:16:35.677Z,11.70
2022-11-16T03:19:07.286Z,10.95
2022-11-16T03:21:38.401Z,10.25
2022-11-16T03:24:06.293Z,10.38
2022-11-16T03:26:39.551Z,9.68
2022-11-16T03:29:09.705Z,8.93
2022-11-16T03:31:40.393Z,9.18
2022-11-16T03:34:10.936Z,10.15
2022-11-16T03:36:40.444Z,9.32
2022-11-16T03:39:11.359Z,9.43
2022-11-16T03:41:43.594Z,9.32
2022-11-16T03:44:13.745Z,9.25
2022-11-16T03:46:41.609Z,10.50
2022-11-16T03:49:10.355Z,9.10
2022-11-16T03:51:37.957Z,9.88
2022-11-16T03:54:05.889Z,9.88
2022-11-16T03:56:33.341Z,9.77
2022-11-16T03:59:00.821Z,10.35
2022-11-16T04:01:28.232Z,10.77
2022-11-16T04:03:55.672Z,10.80
2022-11-16T04:06:42.201Z,10.65
2022-11-16T04:09:27.247Z,9.68
2022-11-16T04:12:12.130Z,10.02
2022-11-16T04:14:57.637Z,10.00
2022-11-16T04:17:43.455Z,9.88
2022-11-16T04:20:29.557Z,10.30
2022-11-16T04:23:18.500Z,9.98
2022-11-16T04:25:47.203Z,10.20
2022-11-16T04:28:14.028Z,9.57
2022-11-16T04:30:59.888Z,11.20
2022-11-16T04:33:45.439Z,10.20
2022-11-16T04:36:30.657Z,9.80
2022-11-16T04:38:59.438Z,10.02
2022-11-16T04:41:44.482Z,10.02
2022-11-16T04:44:11.911Z,10.65
2022-11-16T04:46:56.808Z,9.23
2022-11-16T04:49:24.168Z,10.55
2022-11-16T04:51:51.656Z,9.70
2022-11-16T04:54:20.448Z,9.45
2022-11-16T04:56:47.882Z,9.80
2022-11-16T04:59:15.498Z,9.65
2022-11-16T05:02:00.439Z,10.20
2022-11-16T05:04:27.962Z,10.38
2022-11-16T05:06:55.464Z,10.52
2022-11-16T05:09:24.292Z,10.50
2022-11-16T05:11:51.837Z,9.50
2022-11-16T05:14:19.221Z,8.43
2022-11-16T05:16:46.667Z,9.88
2022-11-16T05:19:31.427Z,9.45
2022-11-16T05:21:58.854Z,10.05
2022-11-16T05:24:36.672Z,10.15
2022-11-16T05:27:05.016Z,9.90
2022-11-16T05:29:32.448Z,9.68
2022-11-16T05:32:00.502Z,9.68
2022-11-16T05:34:28.173Z,10.50
2022-11-16T05:36:55.884Z,10.50
2022-11-16T05:39:23.324Z,10.35
2022-11-16T05:41:52.409Z,12.00
2022-11-16T05:44:20.162Z,12.23
2022-11-16T05:46:47.642Z,12.32
2022-11-16T05:49:15.523Z,12.30
2022-11-16T05:51:43.735Z,12.13
2022-11-16T05:54:12.370Z,11.98
2022-11-16T05:56:40.403Z,12.10
2022-11-16T05:59:15.203Z,11.95
2022-11-16T06:01:44.158Z,11.02
2022-11-16T06:04:11.838Z,10.88
2022-11-16T06:06:39.339Z,11.60
2022-11-16T06:09:06.991Z,12.77
2022-11-16T06:11:36.264Z,12.73
2022-11-16T06:14:03.936Z,12.98
2022-11-16T06:16:32.751Z,14.77
2022-11-16T06:19:05.505Z,13.30
2022-11-16T06:21:35.789Z,13.85
2022-11-16T06:24:10.744Z,12.90
2022-11-16T06:26:52.012Z,13.27
2022-11-16T06:29:19.433Z,12.20
2022-11-16T06:31:48.220Z,12.90
2022-11-16T06:34:15.666Z,11.93
2022-11-16T06:36:43.097Z,12.57
2022-11-16T06:39:11.344Z,11.98
2022-11-16T06:41:41.323Z,15.98
2022-11-16T06:44:09.162Z,14.32
2022-11-16T06:46:36.575Z,14.32
2022-11-16T06:49:05.359Z,13.80
2022-11-16T06:51:32.765Z,13.23
2022-11-16T06:54:00.189Z,13.88
2022-11-16T06:56:27.638Z,13.50
2022-11-16T06:58:56.823Z,13.27
2022-11-16T07:01:24.298Z,13.90
2022-11-16T07:03:51.805Z,14.95
2022-11-16T07:06:30.472Z,15.80
2022-11-16T07:08:58.015Z,14.82
2022-11-16T07:11:25.427Z,15.48
2022-11-16T07:13:52.956Z,15.23
2022-11-16T07:16:21.039Z,15.18
2022-11-16T07:18:51.841Z,15.77
2022-11-16T07:21:19.430Z,14.82
2022-11-16T07:23:50.518Z,15.48
2022-11-16T07:26:18.472Z,15.55
2022-11-16T07:28:48.349Z,18.00
2022-11-16T07:31:16.546Z,17.98
2022-11-16T07:33:48.154Z,17.80
2022-11-16T07:36:15.966Z,18.30
2022-11-16T07:38:43.424Z,17.17
2022-11-16T07:41:13.093Z,16.88
2022-11-16T07:43:40.809Z,15.70
2022-11-16T07:46:44.767Z,16.02
2022-11-16T07:48:57.460Z,15.73
2022-11-16T07:51:27.542Z,16.73
2022-11-16T07:53:55.956Z,15.65
2022-11-16T07:56:24.968Z,13.60
2022-11-16T07:58:52.484Z,12.93
2022-11-16T08:01:20.151Z,15.38
2022-11-16T08:03:48.105Z,13.07
2022-11-16T08:06:17.482Z,15.00
2022-11-16T08:08:45.124Z,14.07
2022-11-16T08:11:13.630Z,14.98
2022-11-16T08:13:42.791Z,13.85
2022-11-16T08:16:13.441Z,14.00
2022-11-16T08:18:41.678Z,12.73
2022-11-16T08:21:10.195Z,14.30
2022-11-16T08:23:37.638Z,14.32
2022-11-16T08:26:06.239Z,14.73
2022-11-16T08:28:34.432Z,12.00
2022-11-16T08:31:08.682Z,12.07
2022-11-16T08:33:44.171Z,12.50
2022-11-16T08:36:17.057Z,11.30
2022-11-16T08:38:44.868Z,11.43
2022-11-16T08:41:12.359Z,10.10
2022-11-16T08:43:40.517Z,8.70
2022-11-16T08:46:09.491Z,9.20
2022-11-16T08:48:37.404Z,8.95
2022-11-16T08:51:21.208Z,7.55
2022-11-16T08:53:49.371Z,5.38
2022-11-16T08:56:18.018Z,7.45
2022-11-16T08:58:46.966Z,7.47
2022-11-16T09:01:17.353Z,7.65
2022-11-16T09:03:44.926Z,7.03
2022-11-16T09:06:12.997Z,6.60
2022-11-16T09:08:41.735Z,4.57
2022-11-16T09:11:09.951Z,3.97
2022-11-16T09:13:37.947Z,4.32
2022-11-16T09:16:06.136Z,4.60
2022-11-16T09:18:35.871Z,5.07
2022-11-16T09:21:03.647Z,4.05
2022-11-16T09:23:31.105Z,4.97
2022-11-16T09:26:02.614Z,5.28
2022-11-16T09:28:30.361Z,3.97
2022-11-16T09:31:00.282Z,4.38
2022-11-16T09:33:28.827Z,3.88
2022-11-16T09:36:01.327Z,3.13
2022-11-16T09:38:46.592Z,2.70
2022-11-16T09:41:22.929Z,2.60
2022-11-16T09:43:54.671Z,2.70
2022-11-16T09:46:24.486Z,2.90
2022-11-16T09:48:52.154Z,2.75
2022-11-16T09:51:22.804Z,2.72
2022-11-16T09:53:53.737Z,2.55
2022-11-16T09:56:22.764Z,1.92
2022-11-16T09:58:51.969Z,1.70
2022-11-16T10:01:23.442Z,1.92
2022-11-16T10:03:52.511Z,2.30
2022-11-16T10:06:23.714Z,2.60
2022-11-16T10:08:52.475Z,2.00
2022-11-16T10:11:37.992Z,1.88
2022-11-16T10:14:14.569Z,1.50
2022-11-16T10:16:49.908Z,1.90
2022-11-16T10:19:22.491Z,1.52
2022-11-16T10:21:57.055Z,2.17
2022-11-16T10:24:34.273Z,1.70
2022-11-16T10:27:07.816Z,1.70
2022-11-16T10:29:46.581Z,1.73
2022-11-16T10:32:17.376Z,2.00
2022-11-16T10:35:02.093Z,1.90
2022-11-16T10:37:31.900Z,1.67
2022-11-16T10:39:59.478Z,1.63
2022-11-16T10:42:29.501Z,2.00
2022-11-16T10:45:01.352Z,1.92
2022-11-16T10:47:34.169Z,2.80
2022-11-16T10:50:02.656Z,2.30
2022-11-16T10:52:44.994Z,2.33
2022-11-16T10:55:15.930Z,2.15
2022-11-16T10:57:54.713Z,1.80
2022-11-16T11:00:34.234Z,1.80
2022-11-16T11:03:01.898Z,1.60
2022-11-16T11:05:29.798Z,1.40
2022-11-16T11:08:01.597Z,1.75
2022-11-16T11:10:32.171Z,1.80
2022-11-16T11:13:06.387Z,1.55
2022-11-16T11:15:33.843Z,1.55
2022-11-16T11:18:12.681Z,1.60
2022-11-16T11:20:44.847Z,2.10
2022-11-16T11:23:14.908Z,1.50
2022-11-16T11:26:04.021Z,1.65
2022-11-16T11:28:32.490Z,1.50
2022-11-16T11:31:03.576Z,1.40
2022-11-16T11:33:32.676Z,1.50
2022-11-16T11:36:03.252Z,1.75
2022-11-16T11:38:31.099Z,1.60
2022-11-16T11:41:05.081Z,1.52
2022-11-16T11:43:34.391Z,1.45
2022-11-16T11:46:06.355Z,1.55
2022-11-16T11:48:47.720Z,1.60
2022-11-16T11:51:18.259Z,1.30
2022-11-16T11:53:55.289Z,1.33
2022-11-16T11:56:24.609Z,1.50
2022-11-16T11:58:52.737Z,1.42
2022-11-16T12:01:38.862Z,1.40
2022-11-16T12:04:28.626Z,1.50
2022-11-16T12:06:59.006Z,1.33
2022-11-16T12:09:34.354Z,1.67
2022-11-16T12:12:14.446Z,1.58
2022-11-16T12:14:51.667Z,1.40
2022-11-16T12:17:21.504Z,1.35
2022-11-16T12:19:59.918Z,1.40
2022-11-16T12:22:37.774Z,1.50
2022-11-16T12:25:11.844Z,1.70
2022-11-16T12:27:44.989Z,1.50
2022-11-16T12:30:14.388Z,1.60
2022-11-16T12:32:48.598Z,1.80
2022-11-16T12:35:24.689Z,1.38
2022-11-16T12:37:58.074Z,1.27
2022-11-16T12:40:36.841Z,1.80
2022-11-16T12:43:10.571Z,1.30
2022-11-16T12:46:10.372Z,1.50
2022-11-16T12:48:50.219Z,1.40
2022-11-16T12:51:27.534Z,1.35
2022-11-16T12:54:08.026Z,1.67
2022-11-16T12:56:44.611Z,1.40
2022-11-16T12:59:26.853Z,1.55
2022-11-16T13:02:00.739Z,1.30
2022-11-16T13:04:31.329Z,1.40
2022-11-16T13:07:09.317Z,1.40
2022-11-16T13:09:39.729Z,1.60
2022-11-16T13:12:14.062Z,1.65
2022-11-16T13:14:45.994Z,1.35
2022-11-16T13:17:18.281Z,1.52
2022-11-16T13:19:47.855Z,1.80
2022-11-16T13:22:17.523Z,1.48
2022-11-16T13:24:47.551Z,2.13
2022-11-16T13:27:32.948Z,2.08
2022-11-16T13:30:05.044Z,1.92
2022-11-16T13:32:41.303Z,1.77
2022-11-16T13:35:14.642Z,1.60
2022-11-16T13:37:42.757Z,1.65
2022-11-16T13:40:14.858Z,1.75
2022-11-16T13:42:44.982Z,1.65
2022-11-16T13:45:17.005Z,1.83
2022-11-16T13:47:49.560Z,1.85
2022-11-16T13:50:18.513Z,1.60
2022-11-16T13:53:36.332Z,1.42
2022-11-16T13:55:35.253Z,1.70
2022-11-16T13:58:05.475Z,1.85
2022-11-16T14:00:36.193Z,1.77
2022-11-16T14:03:22.146Z,1.77
2022-11-16T14:05:50.317Z,2.15
2022-11-16T14:08:33.991Z,2.20
2022-11-16T14:11:01.999Z,1.75
2022-11-16T14:13:40.039Z,1.77
2022-11-16T14:16:26.135Z,2.53
2022-11-16T14:18:55.549Z,1.60
2022-11-16T14:21:30.234Z,1.88
2022-11-16T14:24:06.379Z,2.22
2022-11-16T14:26:41.485Z,1.70
2022-11-16T14:29:16.444Z,2.10
2022-11-16T14:31:48.814Z,1.70
2022-11-16T14:34:18.951Z,1.95
2022-11-16T14:36:47.816Z,1.63
2022-11-16T14:39:16.344Z,1.70
2022-11-16T14:41:45.367Z,1.92
2022-11-16T14:44:13.232Z,1.65
2022-11-16T14:46:40.869Z,1.92
2022-11-16T14:49:16.967Z,1.77
2022-11-16T14:51:47.418Z,1.67
2022-11-16T14:54:19.284Z,1.60
2022-11-16T14:57:01.593Z,1.55
2022-11-16T14:59:29.756Z,2.15
2022-11-16T15:01:57.733Z,2.30
2022-11-16T15:04:36.136Z,2.10
2022-11-16T15:07:05.707Z,2.20
2022-11-16T15:09:37.758Z,2.10
2022-11-16T15:12:23.638Z,2.50
2022-11-16T15:14:57.627Z,1.83
2022-11-16T15:17:31.939Z,1.90
2022-11-16T15:20:01.927Z,1.80
2022-11-16T15:22:50.828Z,2.85
2022-11-16T15:25:25.589Z,2.03
2022-11-16T15:27:53.431Z,2.22
2022-11-16T15:30:21.718Z,2.70
2022-11-16T15:32:50.210Z,2.40
2022-11-16T15:35:20.156Z,2.88
2022-11-16T15:37:49.262Z,5.63
2022-11-16T15:40:16.842Z,4.43
2022-11-16T15:42:44.661Z,3.90
2022-11-16T15:45:18.690Z,2.90
2022-11-16T15:47:47.143Z,2.83
2022-11-16T15:50:16.875Z,2.90
2022-11-16T15:52:55.437Z,2.13
2022-11-16T15:55:38.668Z,4.10
2022-11-16T15:58:07.801Z,2.38
2022-11-16T16:00:36.481Z,2.03
2022-11-16T16:03:06.153Z,2.20
2022-11-16T16:05:34.476Z,2.90
2022-11-16T16:08:02.067Z,2.60
2022-11-16T16:10:29.648Z,2.60
2022-11-16T16:13:00.434Z,2.90
2022-11-16T16:15:29.892Z,5.32
2022-11-16T16:17:57.822Z,3.15
2022-11-16T16:20:26.365Z,2.70
2022-11-16T16:22:54.192Z,4.03
2022-11-16T16:25:29.472Z,4.57
2022-11-16T16:27:58.838Z,3.80
2022-11-16T16:30:26.247Z,3.28
2022-11-16T16:32:57.971Z,3.05
2022-11-16T16:35:26.124Z,4.30
2022-11-16T16:37:58.958Z,5.13
2022-11-16T16:40:26.534Z,4.18
2022-11-16T16:42:55.956Z,4.00
2022-11-16T16:45:31.935Z,4.50
2022-11-16T16:47:59.402Z,6.35
2022-11-16T16:50:26.904Z,37.25
2022-11-16T16:52:54.438Z,18.67
2022-11-16T16:55:21.842Z,13.43
2022-11-16T16:57:49.373Z,5.45
2022-11-16T17:00:17.420Z,3.60
2022-11-16T17:02:46.347Z,3.70
2022-11-16T17:05:13.953Z,2.58
2022-11-16T17:07:41.442Z,6.15
2022-11-16T17:10:09.288Z,9.18
2022-11-16T17:12:36.758Z,8.95
2022-11-16T17:15:04.809Z,16.67
2022-11-16T17:17:32.428Z,13.32
2022-11-16T17:20:01.166Z,10.23
2022-11-16T17:22:28.619Z,8.02
2022-11-16T17:24:56.024Z,6.95
2022-11-16T17:27:23.457Z,10.40
2022-11-16T17:29:50.934Z,13.00
2022-11-16T17:32:18.371Z,12.10
2022-11-16T17:34:45.809Z,13.90
2022-11-16T17:37:14.607Z,5.00
2022-11-16T17:39:42.055Z,4.47
2022-11-16T17:42:09.522Z,3.75
2022-11-16T17:44:36.953Z,4.40
2022-11-16T17:47:04.493Z,3.65
2022-11-16T17:49:31.901Z,8.18
2022-11-16T17:51:59.303Z,7.15
2022-11-16T17:54:28.123Z,6.25
2022-11-16T17:56:55.567Z,6.63
2022-11-16T17:59:28.962Z,7.20
2022-11-16T18:01:57.881Z,7.13
2022-11-16T18:04:25.431Z,6.88
2022-11-16T18:06:52.996Z,7.40
2022-11-16T18:09:20.483Z,8.15
2022-11-16T18:11:49.250Z,7.65
2022-11-16T18:14:16.694Z,6.40
2022-11-16T18:16:44.336Z,5.68
2022-11-16T18:19:15.795Z,7.47
2022-11-16T18:21:43.496Z,7.07
2022-11-16T18:24:11.217Z,7.55
2022-11-16T18:26:39.192Z,7.80
2022-11-16T18:29:09.341Z,8.25
2022-11-16T18:31:36.772Z,9.43
2022-11-16T18:34:04.259Z,8.60
2022-11-16T18:36:31.694Z,8.18
2022-11-16T18:38:59.118Z,8.57
2022-11-16T18:41:28.094Z,9.77
2022-11-16T18:43:56.314Z,9.25
2022-11-16T18:46:26.496Z,9.75
2022-11-16T18:48:53.915Z,9.00
2022-11-16T18:51:21.976Z,8.68
2022-11-16T18:53:49.945Z,9.35
2022-11-16T18:56:17.682Z,8.48
2022-11-16T18:58:53.383Z,8.10
2022-11-16T19:01:22.234Z,7.72
2022-11-16T19:03:51.635Z,8.68
2022-11-16T19:06:19.439Z,8.73
2022-11-16T19:08:52.132Z,9.70
2022-11-16T19:11:21.626Z,10.23
2022-11-16T19:13:53.393Z,10.70
2022-11-16T19:16:20.935Z,10.75
2022-11-16T19:18:48.369Z,11.48
2022-11-16T19:21:18.450Z,12.30
2022-11-16T19:23:46.530Z,12.93
2022-11-16T19:26:15.114Z,13.00
2022-11-16T19:28:43.443Z,12.73
2022-11-16T19:31:12.166Z,13.38
2022-11-16T19:33:39.865Z,13.75
2022-11-16T19:36:08.475Z,12.88
2022-11-16T19:38:37.388Z,12.93
2022-11-16T19:41:05.147Z,13.40
2022-11-16T19:43:33.338Z,14.70
2022-11-16T19:46:02.857Z,14.13
2022-11-16T19:48:30.832Z,12.30
2022-11-16T19:50:58.307Z,13.05
2022-11-16T19:53:25.776Z,12.85
2022-11-16T19:55:57.536Z,12.80
2022-11-16T19:58:25.044Z,12.45
2022-11-16T20:00:52.481Z,12.20
2022-11-16T20:03:19.971Z,12.48
2022-11-16T20:05:47.408Z,12.80
2022-11-16T20:08:14.797Z,10.25
2022-11-16T20:10:42.309Z,11.77
2022-11-16T20:13:11.109Z,11.82
2022-11-16T20:15:38.550Z,10.93
2022-11-16T20:18:06.292Z,10.15
2022-11-16T20:20:33.754Z,10.77
2022-11-16T20:23:01.253Z,11.07
2022-11-16T20:25:30.648Z,9.40
2022-11-16T20:27:58.130Z,8.88
2022-11-16T20:30:26.951Z,9.10
2022-11-16T20:32:54.408Z,8.35
2022-11-16T20:35:21.881Z,9.82
2022-11-16T20:37:49.310Z,9.43
2022-11-16T20:40:16.888Z,12.75
2022-11-16T20:42:44.322Z,14.32
2022-11-16T20:45:12.352Z,14.65
2022-11-16T20:47:41.211Z,15.32
2022-11-16T20:50:08.997Z,14.70
2022-11-16T20:52:41.202Z,15.57
2022-11-16T20:55:10.850Z,15.23
2022-11-16T20:57:40.971Z,16.00
2022-11-16T21:00:08.916Z,14.20
2022-11-16T21:02:36.356Z,14.20
2022-11-16T21:05:05.453Z,13.90
2022-11-16T21:07:33.031Z,14.60
2022-11-16T21:10:20.494Z,13.38
2022-11-16T21:13:05.611Z,11.63
2022-11-16T21:15:33.131Z,13.45
2022-11-16T21:18:00.567Z,21.58
2022-11-16T21:20:29.355Z,15.30
2022-11-16T21:22:56.750Z,13.15
2022-11-16T21:25:24.245Z,11.32
2022-11-16T21:27:51.650Z,12.07
2022-11-16T21:30:19.125Z,11.02
2022-11-16T21:32:46.560Z,11.38
2022-11-16T21:35:14.052Z,11.65
2022-11-16T21:37:42.800Z,12.25
2022-11-16T21:40:11.267Z,12.60
2022-11-16T21:42:38.653Z,14.52
2022-11-16T21:45:06.392Z,13.48
2022-11-16T21:47:33.912Z,12.35
2022-11-16T21:52:50.080Z,13.50
2022-11-16T21:55:17.524Z,12.98
2022-11-16T21:57:44.917Z,10.70
2022-11-16T22:00:12.811Z,10.93
2022-11-16T22:02:40.280Z,11.77
2022-11-16T22:05:25.961Z,11.55
2022-11-16T22:07:54.713Z,10.32
2022-11-16T22:10:22.335Z,11.23
2022-11-16T22:12:49.781Z,10.50
2022-11-16T22:15:17.255Z,11.02
2022-11-16T22:17:44.983Z,12.13
2022-11-16T22:20:12.723Z,11.50
2022-11-16T22:22:40.224Z,11.60
2022-11-16T22:25:09.622Z,12.13
2022-11-16T22:27:58.444Z,11.32
2022-11-16T22:30:24.602Z,11.02
2022-11-16T22:32:52.002Z,10.38
2022-11-16T22:35:19.457Z,10.32
2022-11-16T22:37:46.906Z,10.63
2022-11-16T22:40:17.872Z,10.55
2022-11-16T22:42:45.556Z,10.88
2022-11-16T22:45:13.024Z,11.60
2022-11-16T22:47:40.462Z,10.57
2022-11-16T22:50:08.070Z,11.55
2022-11-16T22:52:35.483Z,9.85
2022-11-16T22:55:02.930Z,10.73
2022-11-16T22:57:31.737Z,9.38
2022-11-16T22:59:59.183Z,9.90
2022-11-16T23:02:26.650Z,10.20
2022-11-16T23:04:54.028Z,10.27
2022-11-16T23:07:21.556Z,9.52
2022-11-16T23:09:49.107Z,10.75
2022-11-16T23:12:33.878Z,11.18
2022-11-16T23:15:19.976Z,10.25
2022-11-16T23:17:47.356Z,11.32
2022-11-16T23:20:32.188Z,10.73
2022-11-16T23:23:17.010Z,10.30
2022-11-16T23:26:04.017Z,10.93
2022-11-16T23:28:31.460Z,10.88
2022-11-16T23:31:00.270Z,11.00
2022-11-16T23:33:41.672Z,10.98
2022-11-16T23:36:09.565Z,10.98
2022-11-16T23:38:36.996Z,10.93
2022-11-16T23:41:24.667Z,10.15
2022-11-16T23:44:00.298Z,10.25
2022-11-16T23:46:30.348Z,9.68
2022-11-16T23:48:57.843Z,10.05
2022-11-16T23:51:25.658Z,9.97
2022-11-16T23:53:53.369Z,9.77
2022-11-16T23:56:21.204Z,10.20
2022-11-16T23:58:48.801Z,9.35
